Historique des stations

Station météo de Bazoches-les-Gallerandes

Altitude de la station : 134 m







Données météorologiques pour le 18/05/2022
Date
Heure
Températures Humidité Point de rosée Vitesse
du vent
Direction Rafales Windchill Pression Pluviométrie
Cumul
Date
Heure
Températures Humidité Point de rosée Vitesse
du vent
Direction Rafales Windchill Pression Pluviométrie
Cumul
18/05/2022 15:0025.8 °C65 %18.7 °C6 km/hENE11 km/h25.81020 hPa0.0 mm
18/05/2022 14:4025.5 °C64 %18.2 °C6 km/hNE13 km/h25.51020 hPa0.0 mm
18/05/2022 14:3025.4 °C67 %18.8 °C5 km/hNE15 km/h25.41020 hPa0.0 mm
18/05/2022 14:1025.1 °C67 %18.5 °C5 km/hNE13 km/h25.11020 hPa0.0 mm
18/05/2022 14:0024.7 °C68 %18.4 °C5 km/hNNE15 km/h24.71020 hPa0.0 mm
18/05/2022 13:4024.4 °C72 %19.1 °C5 km/hNE13 km/h24.41020 hPa0.0 mm
18/05/2022 13:3024.2 °C75 %19.4 °C6 km/hNE15 km/h24.21021 hPa0.0 mm
18/05/2022 13:1023.9 °C72 %18.6 °C7 km/hNE15 km/h23.91021 hPa0.0 mm
18/05/2022 13:0023.7 °C74 %18.8 °C7 km/hENE15 km/h23.71021 hPa0.0 mm
18/05/2022 12:4023.1 °C73 %17.9 °C8 km/hENE13 km/h23.11021 hPa0.0 mm
18/05/2022 12:3023.0 °C75 %18.3 °C8 km/hENE16 km/h23.01021 hPa0.0 mm
18/05/2022 12:1022.7 °C78 %18.6 °C8 km/hNE13 km/h22.71021 hPa0.0 mm
18/05/2022 12:0022.3 °C78 %18.3 °C9 km/hENE15 km/h22.31021 hPa0.0 mm
18/05/2022 11:4021.9 °C79 %18.1 °C10 km/hENE16 km/h21.91021 hPa0.0 mm
18/05/2022 11:3021.6 °C80 %18.0 °C10 km/hENE18 km/h21.61021 hPa0.0 mm
18/05/2022 11:1021.2 °C80 %17.6 °C10 km/hENE18 km/h21.21021 hPa0.0 mm
18/05/2022 11:00---10 km/h---0 hPa0.0 mm
18/05/2022 10:3019.7 °C82 %16.6 °C8 km/hNE15 km/h19.71021 hPa0.0 mm
18/05/2022 10:1019.5 °C80 %16.0 °C7 km/hNE18 km/h19.51021 hPa0.0 mm
18/05/2022 10:0019.3 °C82 %16.2 °C6 km/hNE15 km/h19.31022 hPa0.0 mm
18/05/2022 09:4019.0 °C84 %16.2 °C5 km/hNNE15 km/h19.01022 hPa0.0 mm
18/05/2022 09:3018.3 °C85 %15.7 °C5 km/hNNE15 km/h18.31022 hPa0.0 mm
18/05/2022 09:1018.1 °C85 %15.5 °C5 km/hNNE15 km/h18.11022 hPa0.0 mm
18/05/2022 09:0017.4 °C86 %15.1 °C4 km/h13 km/h17.41022 hPa0.0 mm
18/05/2022 08:4017.1 °C87 %14.9 °C4 km/h15 km/h17.11022 hPa0.0 mm
18/05/2022 08:3016.8 °C88 %14.8 °C4 km/hNNO11 km/h16.81021 hPa0.0 mm
18/05/2022 08:1016.4 °C91 %15.0 °C3 km/hNNO10 km/h16.41022 hPa0.0 mm
18/05/2022 08:0016.0 °C93 %14.9 °C2 km/hNO10 km/h16.01021 hPa0.0 mm
18/05/2022 07:4015.7 °C94 %14.8 °C2 km/h10 km/h15.71021 hPa0.0 mm
18/05/2022 07:3015.2 °C95 %14.4 °C1 km/hNO5 km/h15.21021 hPa0.0 mm
18/05/2022 07:1014.6 °C95 %13.8 °C-ONO3 km/h14.61021 hPa0.0 mm
18/05/2022 07:0014.1 °C95 %13.3 °C-NO5 km/h14.11021 hPa0.0 mm
18/05/2022 06:4013.9 °C95 %13.1 °C-O2 km/h13.91021 hPa0.0 mm
18/05/2022 06:3014.1 °C95 %13.3 °C-O3 km/h14.11021 hPa0.0 mm
18/05/2022 06:1014.1 °C95 %13.3 °C---14.11021 hPa0.0 mm
18/05/2022 06:0014.5 °C95 %13.7 °C-O3 km/h14.51021 hPa0.0 mm
18/05/2022 05:4014.6 °C94 %13.7 °C-OSO3 km/h14.61020 hPa0.0 mm
18/05/2022 05:3014.9 °C94 %13.9 °C-OSO2 km/h14.91020 hPa0.0 mm
18/05/2022 05:1015.1 °C94 %14.1 °C-O2 km/h15.11020 hPa0.0 mm
18/05/2022 05:0015.4 °C94 %14.4 °C-O2 km/h15.41020 hPa0.0 mm
18/05/2022 04:4015.4 °C94 %14.4 °C-O2 km/h15.41020 hPa0.0 mm
18/05/2022 04:3015.4 °C93 %14.3 °C-ONO2 km/h15.41020 hPa0.0 mm
18/05/2022 04:1015.8 °C93 %14.7 °C-O3 km/h15.81020 hPa0.0 mm
18/05/2022 04:0015.9 °C93 %14.8 °C-ONO5 km/h15.91020 hPa0.0 mm
18/05/2022 03:4016.3 °C93 %15.2 °C-O5 km/h16.31020 hPa0.0 mm
18/05/2022 03:3016.3 °C93 %15.2 °C1 km/hOSO5 km/h16.31019 hPa0.0 mm
18/05/2022 03:1016.6 °C92 %15.2 °C1 km/hO3 km/h16.61020 hPa0.0 mm
18/05/2022 03:0016.8 °C91 %15.4 °C2 km/hO2 km/h16.81019 hPa0.0 mm
18/05/2022 02:4017.2 °C91 %15.7 °C3 km/hO3 km/h17.21019 hPa0.0 mm
18/05/2022 02:3017.4 °C90 %15.8 °C3 km/hO6 km/h17.41019 hPa0.0 mm
18/05/2022 01:4018.3 °C88 %16.3 °C4 km/hO10 km/h18.31019 hPa0.0 mm
18/05/2022 01:3018.8 °C86 %16.4 °C3 km/hO8 km/h18.81019 hPa0.0 mm
18/05/2022 01:1019.4 °C84 %16.6 °C3 km/hO8 km/h19.41019 hPa0.0 mm
18/05/2022 01:0019.7 °C83 %16.7 °C2 km/hO8 km/h19.71019 hPa0.0 mm
18/05/2022 00:4019.5 °C85 %16.9 °C1 km/hO5 km/h19.51019 hPa0.0 mm
18/05/2022 00:3019.3 °C86 %16.9 °C2 km/hO6 km/h19.31018 hPa0.0 mm
18/05/2022 00:1019.2 °C86 %16.8 °C2 km/hO3 km/h19.21018 hPa0.0 mm
18/05/2022 00:0020.1 °C82 %16.9 °C3 km/hO5 km/h20.11018 hPa0.0 mm


Minima :

Température : 13.9 °C
Humidité : 64 %
Point de rosée : 13.1 °C
Vent moyen : 1 km/h
Windchill : 13.9
Pression atm. : 0 hPa
Maxima :

Température : 25.8 °C
Humidité : 95 %
Point de rosée : 19.4 °C
Vent moyen : 10 km/h
Windchill : 25.8
Pression atm. : 1022 hPa
Rafales max : 18 km/h
Cumul de pluie sur 24H : 0 mm

Bazoches les gallerandes est une commune du département Loiret (45).
La station météorologique du réseau de l'association la plus proche de Bazoches-les-Gallerandes est celle de Boisseaux



Icône Facebook Association Météo Centre Icône Twitter Association Météo Centre Icône Chaîne Youtube Association Météo Centre Icône contact Association Météo Centre Icône Insta Association Météo Centre